METAR Data
IDs: Format: Raw Decoded Include TAF

Data at: 0125 UTC 24 Sep 2018

KGXY 240056Z 00000KT 10SM CLR 24/03 A2986 RMK AO2 SLP086 T02440028
KGXY 232356Z 17005KT 10SM CLR 26/01 A2986 RMK AO2 SLP084 T02610011 10328 20261 56014
KGXY 232256Z 17007KT 10SM CLR 31/M01 A2986 RMK AO2 SLP077 T03111006
KGXY 232156Z 18010G18KT 10SM CLR 32/M02 A2988 RMK AO2 SLP081 T03171017
KGXY 232056Z 17012G20KT 10SM CLR 32/M01 A2990 RMK AO2 SLP087 T03221011 56031
KGXY 231956Z 20006KT 9SM CLR 32/M03 A2994 RMK AO2 SLP098 T03171028
KGXY 231856Z 16007KT 10SM CLR 31/M03 A2997 RMK AO2 SLP111 T03111028
KGXY 231756Z VRB05KT 10SM CLR 28/04 A3001 RMK AO2 SLP125 T02830039 10283 20061 58016
KGXY 231656Z 16004KT 10SM CLR 26/01 A3004 RMK AO2 SLP137 T02610006
KGXY 231556Z 22004KT 10SM CLR 21/01 A3006 RMK AO2 SLP146 T02110006
KGXY 231456Z 00000KT 10SM CLR 16/05 A3006 RMK AO2 SLP153 T01560050 53003
KGXY 231256Z 22004KT 10SM CLR 07/M01 A3005 RMK AO2 SLP153 T00671006
KGXY 231156Z 33007KT 10SM CLR 06/M02 A3005 RMK AO2 SLP146 T00611022 10117 20061 53003
KGXY 231056Z 31006KT 10SM CLR 07/M02 A3004 RMK AO2 SLP141 T00721017
KGXY 230956Z 30006KT 10SM CLR 08/02 A3004 RMK AO2 SLP138 T00780022
KGXY 230856Z 33004KT 10SM CLR 08/00 A3004 RMK AO2 SLP137 T00830000 58003
KGXY 230756Z 00000KT 10SM CLR 09/M01 A3004 RMK AO2 SLP137 T00891011
KGXY 230656Z 34006KT 10SM CLR 09/00 A3005 RMK AO2 SLP143 T00940000 403170056
KGXY 230556Z 04005KT 9SM CLR 12/01 A3005 RMK AO2 SLP145 T01170011 10283 20111 50001
KGXY 230456Z 00000KT 10SM CLR 12/02 A3005 RMK AO2 SLP152 T01220017
KGXY 230356Z 17004KT 10SM CLR 17/M01 A3005 RMK AO2 SLP149 T01671006
KGXY 230256Z 05003KT 10SM CLR 17/01 A3005 RMK AO2 SLP152 T01720011 53005
KGXY 230156Z 17003KT 9SM CLR 20/01 A3003 RMK AO2 SLP152 T02000011
KGXY 230056Z 15004KT 10SM CLR 24/00 A3003 RMK AO2 SLP149 T02440000
KGXY 222356Z 14007KT 10SM CLR 29/M02 A3003 RMK AO2 SLP140 T02891017 10317 20250 56012
KGXY 222256Z 15007KT 10SM CLR 31/M07 A3004 RMK AO2 SLP136 T03111067
KGXY 222156Z 14008KT 10SM CLR 31/M07 A3005 RMK AO2 SLP141 T03111067
KGXY 222056Z 14006KT 5SM HZ CLR 31/M07 A3007 RMK AO2 SLP147 T03111072 58028
KGXY 221956Z 19008KT 10SM CLR 31/M08 A3010 RMK AO2 SLP155 T03061078
KGXY 221856Z 17007KT 9SM CLR 28/08 A3013 RMK AO2 SLP167 T02780078
KGXY 221756Z 22005KT 10SM CLR 25/07 A3016 RMK AO2 SLP180 T02500067 10250 20056 58013
KGXY 221656Z 22006KT 10SM CLR 21/08 A3019 RMK AO2 SLP193 T02110078
KGXY 221556Z 00000KT 10SM CLR 17/07 A3020 RMK AO2 SLP199 T01720072
KGXY 221356Z 00000KT 10SM CLR 09/06 A3020 RMK AO2 SLP209 T00890061